Flight Track Log - Related Links

Times and Time Zones

All times are in EDT time to prevent confusion due to time zone crossing. See the SWA1707 flight status page for this flight to view local times or setup timezone preferences in your user account.

Time Position Orientation Groundspeed Altitude Reporting Facility
EDT Latitude Longitude Course Direction KTS MPH feet Rate Location/Type
Tue 10:46:37 PM 32.8333 -96.8333 134° Southeast 168 193 1,700  Level Dallas / Fort Worth TRACON
Tue 10:48:13 PM 32.7667 -96.7500 134° Southeast 228 262 6,300 2,846 Climbing Dallas / Fort Worth TRACON
Tue 10:49:13 PM 32.7167 -96.7833 209° Southwest 275 316 9,100 2,450 Climbing Dallas / Fort Worth TRACON
Tue 10:50:13 PM 32.7000 -96.8667 257° West 323 372 11,200 2,636 Climbing Dallas / Fort Worth TRACON
Tue 10:51:25 PM 32.7500 -96.9833 297° West 343 395 14,900 1,902 Climbing Dallas / Fort Worth TRACON
Tue 10:53:16 PM 32.8581 -97.1736 304° West 359 413 17,000 1,368 Climbing Fort Worth Center
Tue 10:54:16 PM 32.9042 -97.2650 301° West 364 419 18,800 2,050 Climbing Fort Worth Center
Tue 10:55:16 PM 32.9419 -97.3936 289° West 366 421 21,100 2,250 Climbing Fort Worth Center
Tue 10:56:16 PM 32.9794 -97.5175 290° West 390 449 23,300 2,150 Climbing Fort Worth Center
Tue 10:57:16 PM 33.0169 -97.6439 290° West 398 458 25,400 1,900 Climbing Fort Worth Center
Tue 10:58:16 PM 33.0519 -97.7703 288° West 403 464 27,100 2,100 Climbing Fort Worth Center
Tue 10:59:16 PM 33.0892 -97.8944 290° West 403 464 29,600 2,350 Climbing Fort Worth Center
Tue 11:00:16 PM 33.1242 -98.0161 289° West 398 458 31,800 1,850 Climbing Fort Worth Center
Tue 11:01:16 PM 33.1589 -98.1356 289° West 387 445 33,300 1,500 Climbing Fort Worth Center
Tue 11:02:16 PM 33.1958 -98.2550 290° West 381 438 34,800 1,350 Climbing Fort Worth Center
Tue 11:03:16 PM 33.2306 -98.3719 290° West 386 444 36,000 600 Climbing Fort Worth Center
Tue 11:04:16 PM 33.2650 -98.4917 289° West 381 438 36,000  Level Fort Worth Center
Tue 11:05:16 PM 33.3014 -98.6114 290° West 381 438 36,000  Level Fort Worth Center
Tue 11:06:16 PM 33.3336 -98.7311 288° West 386 444 36,000  Level Fort Worth Center
Tue 11:07:16 PM 33.3678 -98.8486 289° West 386 444 36,000  Level Fort Worth Center
Tue 11:08:16 PM 33.4019 -98.9661 289° West 386 444 36,000  Level Fort Worth Center
Tue 11:09:16 PM 33.4339 -99.0861 288° West 386 444 36,000  Level Fort Worth Center
Tue 11:10:16 PM 33.4675 -99.2039 289° West 386 444 36,000  Level Fort Worth Center
Tue 11:11:16 PM 33.5014 -99.3217 289° West 386 444 36,000  Level Fort Worth Center
Tue 11:12:16 PM 33.5328 -99.4394 288° West 386 444 36,000  Level Fort Worth Center
Tue 11:13:16 PM 33.5664 -99.5597 289° West 386 444 36,000  Level Fort Worth Center
Tue 11:14:16 PM 33.5997 -99.6803 288° West 386 444 36,000  Level Fort Worth Center
Tue 11:15:16 PM 33.6331 -99.8011 288° West 386 444 36,000  Level Fort Worth Center
Tue 11:16:16 PM 33.6661 -99.9242 288° West 386 444 36,000  Level Fort Worth Center
Tue 11:17:16 PM 33.7011 -100.0450 289° West 386 444 36,000  Level Fort Worth Center
Tue 11:18:16 PM 33.7361 -100.1683 289° West 386 444 36,000  Level Fort Worth Center
Tue 11:19:16 PM 33.7667 -100.2894 287° West 386 444 36,000  Level Fort Worth Center
Tue 11:20:16 PM 33.8011 -100.4181 288° West 386 444 36,000  Level Fort Worth Center
Tue 11:21:16 PM 33.8378 -100.5417 290° West 386 444 36,000  Level Fort Worth Center
Tue 11:22:16 PM 33.8744 -100.6606 290° West 386 444 36,000  Level Fort Worth Center
Tue 11:23:16 PM 33.9131 -100.7822 291° West 391 450 36,000  Level Fort Worth Center
Tue 11:24:16 PM 33.9492 -100.9064 289° West 391 450 36,000  Level Fort Worth Center
Tue 11:25:16 PM 33.9756 -101.0075 287° West 391 450 36,000  Level Fort Worth Center
Tue 11:26:16 PM 34.0192 -101.1597 289° West 391 450 36,000  Level Fort Worth Center
Tue 11:27:16 PM 34.0533 -101.2714 290° West 391 450 36,000  Level Fort Worth Center
Tue 11:28:16 PM 34.0928 -101.4061 290° West 396 456 36,000  Level Fort Worth Center
Tue 11:29:16 PM 34.1267 -101.5231 289° West 396 456 36,000  Level Fort Worth Center
Tue 11:30:16 PM 34.1639 -101.6578 288° West 390 449 36,000  Level Fort Worth Center
Tue 11:31:16 PM 34.2011 -101.7853 289° West 390 449 36,000  Level Fort Worth Center
Tue 11:33:06 PM 34.2628 -102.0036 289° West 390 449 36,000  Level Albuquerque Center
Tue 11:34:07 PM 34.2978 -102.1264 289° West 387 445 36,000  Level Albuquerque Center
Tue 11:35:09 PM 34.3317 -102.2500 288° West 387 445 36,000  Level Albuquerque Center
Tue 11:36:10 PM 34.3667 -102.3722 289° West 385 443 36,000  Level Albuquerque Center
Tue 11:37:12 PM 34.4006 -102.4947 289° West 384 442 36,000  Level Albuquerque Center
Tue 11:38:13 PM 34.4347 -102.6178 289° West 384 442 36,000  Level Albuquerque Center
Tue 11:39:14 PM 34.4686 -102.7417 288° West 385 443 36,000  Level Albuquerque Center
Tue 11:40:16 PM 34.5053 -102.8844 287° West 383 441 36,000  Level Albuquerque Center
Tue 11:41:17 PM 34.5183 -103.0158 277° West 384 442 36,000  Level Albuquerque Center
Tue 11:42:19 PM 34.5383 -103.1439 281° West 384 442 36,000  Level Albuquerque Center
Tue 11:43:20 PM 34.5581 -103.2731 281° West 385 443 36,000  Level Albuquerque Center
Tue 11:44:21 PM 34.5797 -103.4011 282° West 385 443 36,000  Level Albuquerque Center
Tue 11:45:23 PM 34.5989 -103.5303 280° West 385 443 36,000  Level Albuquerque Center
Tue 11:46:24 PM 34.6189 -103.6594 281° West 386 444 36,000  Level Albuquerque Center
Tue 11:47:25 PM 34.6389 -103.7900 281° West 387 445 36,000  Level Albuquerque Center
Tue 11:48:26 PM 34.6589 -103.9192 281° West 385 443 36,000  Level Albuquerque Center
Tue 11:49:28 PM 34.6786 -104.0506 280° West 389 448 36,000  Level Albuquerque Center
Tue 11:50:29 PM 34.6978 -104.1814 280° West 389 448 36,000  Level Albuquerque Center
Tue 11:51:30 PM 34.7172 -104.3131 280° West 390 449 36,000  Level Albuquerque Center
Tue 11:52:32 PM 34.7364 -104.4442 280° West 390 449 36,000  Level Albuquerque Center
Tue 11:53:33 PM 34.7556 -104.5761 280° West 391 450 36,000  Level Albuquerque Center
Tue 11:54:34 PM 34.7756 -104.7086 280° West 392 451 36,000  Level Albuquerque Center
Tue 11:55:35 PM 34.7972 -104.8619 280° West 391 450 36,000  Level Albuquerque Center
Tue 11:56:36 PM 34.8164 -104.9928 280° West 390 449 36,000 -488 Level Albuquerque Center
Tue 11:57:38 PM 34.8350 -105.1242 280° West 390 449 35,000 -2,000 Descending Albuquerque Center
Tue 11:58:39 PM 34.8544 -105.2536 280° West 387 445 31,900 -2,902 Descending Albuquerque Center
Tue 11:59:40 PM 34.8714 -105.3847 279° West 388 447 29,100 -2,607 Descending Albuquerque Center
Wed 12:00:41 AM 34.8900 -105.5128 280° West 382 440 26,600 -2,410 Descending Albuquerque Center
Wed 12:01:42 AM 34.9081 -105.6381 280° West 377 434 24,200 -2,311 Descending Albuquerque Center
Wed 12:02:43 AM 34.9242 -105.7589 279° West 365 420 21,900 -2,333 Descending Albuquerque Center
Wed 12:03:30 AM 34.9339 -105.8558 277° West 359 413 20,000 -2,386 Descending Albuquerque Center
Wed 12:04:06 AM 34.9447 -105.9281 280° West 352 405 18,600 -1,520 Descending Albuquerque Center
Wed 12:04:45 AM 34.9550 -105.9933 281° West 340 391 18,100 -896 Descending Albuquerque Center
Wed 12:05:13 AM 34.9547 -106.0422 270° West 316 364 17,600 -1,355 Descending Albuquerque Center
Wed 12:05:47 AM 34.9589 -106.0969 275° West 313 360 16,700 -1,700 Descending Albuquerque Center
Wed 12:06:13 AM 34.9561 -106.1456 266° West 297 342 15,900 -1,672 Descending Albuquerque Center
Wed 12:06:48 AM 34.9583 -106.1975 273° West 300 345 15,000 -1,770 Descending Albuquerque Center
Wed 12:07:14 AM 34.9578 -106.2514 269° West 291 335 14,100 -1,672 Descending Albuquerque Center
Wed 12:07:49 AM 34.9594 -106.2947 273° West 290 334 13,300 -1,600 Descending Albuquerque Center
Wed 12:08:14 AM 34.9600 -106.3469 271° West 282 325 12,500 -1,574 Descending Albuquerque Center
Wed 12:08:50 AM 34.9606 -106.3889 271° West 281 323 11,700 -1,574 Descending Albuquerque Center
Wed 12:09:15 AM 34.9572 -106.4408 266° West 273 314 10,900 -1,279 Descending Albuquerque Center
Wed 12:09:51 AM 34.9564 -106.4797 269° West 274 315 10,400 -689 Descending Albuquerque Center
Wed 12:10:16 AM 34.9550 -106.5244 268° West 244 281 10,200 -492 Descending Albuquerque Center
Wed 12:10:52 AM 34.9481 -106.5572 256° West 255 293 9,900 -1,000 Descending Albuquerque Center
Wed 12:11:16 AM 34.9258 -106.5889 229° Southwest 219 252 9,200 -984 Descending Albuquerque Center
Wed 12:11:53 AM 34.9036 -106.6108 219° Southwest 234 269 8,900 -896 Descending Albuquerque Center
Wed 12:12:23 AM 34.9011 -106.6550 266° West 211 243 8,200 -885 Descending Albuquerque Center
Wed 12:12:54 AM 34.9019 -106.6822 272° West 227 261 8,000 -492 Descending Albuquerque Center
Wed 12:13:24 AM 34.9081 -106.7203 281° West 186 214 7,700 -492 Descending Albuquerque Center
Wed 12:13:55 AM 34.9264 -106.7256 347° North 210 242 7,500 -444 Descending Albuquerque Center
Wed 12:14:18 AM 34.9531 -106.7089 27° Northeast 199 229 7,300 -800 Descending Albuquerque Center
Wed 12:14:55 AM 34.9722 -106.6919 36° Northeast 199 229 6,700 -985 Descending Albuquerque Center
Wed 12:15:25 AM 34.9928 -106.6675 44° Northeast 167 192 6,200 -885 Descending Albuquerque Center
Wed 12:15:56 AM 35.0047 -106.6514 48° Northeast 181 208 5,800 -587 Descending Albuquerque Center
Wed 12:16:57 AM 35.0406 -106.6064 46° Northeast 173 199 5,300 -492 Descending Albuquerque Center

Login

Don't have an account? Register now (free) for customized features, flight alerts, and more!